createdAt,value
2022-10-25T06:36:04.936Z,100830.13
2022-10-25T06:38:42.551Z,100820.31
2022-10-25T06:41:23.001Z,100826.63
2022-10-25T06:44:06.339Z,100830.84
2022-10-25T06:47:15.429Z,100840.41
2022-10-25T06:49:42.412Z,100836.78
2022-10-25T06:52:21.810Z,100847.03
2022-10-25T06:54:58.787Z,100848.84
2022-10-25T06:57:35.584Z,100841.56
2022-10-25T07:00:15.173Z,100841.31
2022-10-25T07:02:58.905Z,100835.72
2022-10-25T07:05:36.021Z,100840.09
2022-10-25T07:08:15.535Z,100833.50
2022-10-25T07:10:57.621Z,100836.63
2022-10-25T07:13:36.199Z,100833.97
2022-10-25T07:16:16.290Z,100835.25
2022-10-25T07:18:54.789Z,100824.19
2022-10-25T07:21:34.012Z,100830.94
2022-10-25T07:24:14.331Z,100831.41
2022-10-25T07:26:51.411Z,100829.44
2022-10-25T07:29:28.819Z,100830.59
2022-10-25T07:32:06.051Z,100839.31
2022-10-25T07:34:42.901Z,100833.44
2022-10-25T07:37:20.002Z,100836.56
2022-10-25T07:39:59.800Z,100839.38
2022-10-25T07:42:36.975Z,100841.78
2022-10-25T07:45:16.214Z,100842.22
2022-10-25T07:47:56.025Z,100838.03
2022-10-25T07:50:32.783Z,100842.84
2022-10-25T07:53:10.437Z,100840.88
2022-10-25T07:55:55.127Z,100835.84
2022-10-25T07:58:32.275Z,100845.94
2022-10-25T08:01:12.603Z,100844.47
2022-10-25T08:03:49.657Z,100846.84
2022-10-25T08:06:28.297Z,100842.38
2022-10-25T08:09:14.476Z,100854.47
2022-10-25T08:11:59.845Z,100844.38
2022-10-25T08:14:40.706Z,100849.97
2022-10-25T08:17:19.187Z,100848.59
2022-10-25T08:19:56.816Z,100849.72
2022-10-25T08:22:33.656Z,100854.22
2022-10-25T08:25:12.006Z,100852.56
2022-10-25T08:27:51.386Z,100850.00
2022-10-25T08:30:28.758Z,100854.63
2022-10-25T08:33:10.540Z,100856.19
2022-10-25T08:35:48.696Z,100864.06
2022-10-25T08:38:25.578Z,100857.00
2022-10-25T08:41:12.303Z,100856.13
2022-10-25T08:44:19.899Z,100858.69
2022-10-25T08:47:05.235Z,100850.50
2022-10-25T08:49:54.186Z,100844.66
2022-10-25T08:52:41.205Z,100846.16
2022-10-25T08:55:21.305Z,100845.28
2022-10-25T08:57:59.438Z,100842.13
2022-10-25T09:00:42.929Z,100844.59
2022-10-25T09:03:25.909Z,100851.69
2022-10-25T09:06:16.429Z,100854.00
2022-10-25T09:09:23.609Z,100850.13
2022-10-25T09:12:16.992Z,100856.47
2022-10-25T09:15:02.074Z,100859.88
2022-10-25T09:17:52.021Z,100853.81
2022-10-25T09:20:36.261Z,100861.16
2022-10-25T09:23:24.675Z,100859.09
2022-10-25T09:26:09.190Z,100882.69
2022-10-25T09:29:01.954Z,100867.13
2022-10-25T09:31:46.371Z,100871.88
2022-10-25T09:34:28.369Z,100867.81
2022-10-25T09:37:20.051Z,100873.03
2022-10-25T09:40:00.160Z,100873.03
2022-10-25T09:42:43.391Z,100873.97
2022-10-25T09:45:28.041Z,100871.84
2022-10-25T09:48:13.734Z,100865.00
2022-10-25T09:50:59.359Z,100867.28
2022-10-25T09:53:41.130Z,100863.19
2022-10-25T09:56:19.050Z,100867.16
2022-10-25T09:58:57.306Z,100872.41
2022-10-25T10:01:34.993Z,100861.34
2022-10-25T10:04:28.376Z,100861.97
2022-10-25T10:07:19.494Z,100862.31
2022-10-25T10:10:01.675Z,100864.97
2022-10-25T10:12:45.597Z,100873.56
2022-10-25T10:15:29.927Z,100869.59
2022-10-25T10:18:30.325Z,100870.56
2022-10-25T10:21:15.931Z,100882.13
2022-10-25T10:24:01.496Z,100873.31
2022-10-25T10:26:49.534Z,100875.06
2022-10-25T10:29:30.522Z,100877.59
2022-10-25T10:32:10.477Z,100876.91
2022-10-25T10:34:54.379Z,100876.25
2022-10-25T10:37:32.750Z,100870.88
2022-10-25T10:40:28.165Z,100885.28
2022-10-25T10:43:25.319Z,100886.72
2022-10-25T10:46:08.020Z,100889.28
2022-10-25T10:48:48.410Z,100870.91
2022-10-25T10:51:45.016Z,100878.28
2022-10-25T10:54:29.136Z,100869.94
2022-10-25T10:57:10.320Z,100881.25
2022-10-25T10:59:58.078Z,100870.94
2022-10-25T11:02:44.016Z,100883.78
2022-10-25T11:05:31.581Z,100879.59
2022-10-25T11:08:23.449Z,100873.91
2022-10-25T11:11:18.009Z,100877.53
2022-10-25T11:14:00.540Z,100881.03
2022-10-25T11:16:58.647Z,100884.13
2022-10-25T11:20:05.269Z,100884.13
2022-10-25T11:23:00.055Z,100882.66
2022-10-25T11:25:47.609Z,100885.56
2022-10-25T11:28:43.577Z,100891.91
2022-10-25T11:31:33.103Z,100893.56
2022-10-25T11:34:24.130Z,100887.50
2022-10-25T11:37:16.877Z,100897.09
2022-10-25T11:40:09.867Z,100894.56
2022-10-25T11:43:14.657Z,100914.28
2022-10-25T11:46:00.319Z,100905.78
2022-10-25T11:49:04.680Z,100920.94
2022-10-25T11:51:57.529Z,100921.41
2022-10-25T11:54:43.629Z,100921.22
2022-10-25T11:57:33.770Z,100932.13
2022-10-25T12:00:19.464Z,100928.00
2022-10-25T12:03:17.709Z,100932.59
2022-10-25T12:06:11.899Z,100939.34
2022-10-25T12:09:00.879Z,100941.13
2022-10-25T12:11:46.766Z,100941.97
2022-10-25T12:14:35.499Z,100943.03
2022-10-25T12:17:25.058Z,100959.50
2022-10-25T12:20:06.642Z,100942.03
2022-10-25T12:22:50.456Z,100944.63
2022-10-25T12:25:33.112Z,100952.44
2022-10-25T12:28:22.179Z,100946.22
2022-10-25T12:31:09.654Z,100945.84
2022-10-25T12:33:53.738Z,100967.28
2022-10-25T12:36:38.700Z,100969.00
2022-10-25T12:39:24.670Z,100967.19
2022-10-25T12:42:06.461Z,100954.91
2022-10-25T12:45:12.142Z,100958.63
2022-10-25T12:48:07.053Z,100954.69
2022-10-25T12:51:19.039Z,100963.13
2022-10-25T12:54:39.394Z,100966.50
2022-10-25T12:57:30.388Z,100966.91
2022-10-25T13:00:16.019Z,100968.44
2022-10-25T13:03:33.311Z,100976.63
2022-10-25T13:06:36.278Z,100976.94
2022-10-25T13:09:22.079Z,100972.16
2022-10-25T13:12:07.628Z,100978.22
2022-10-25T13:14:50.990Z,100973.22
2022-10-25T13:18:07.760Z,100984.28
2022-10-25T13:20:54.369Z,100982.41
2022-10-25T13:24:04.399Z,100978.88
2022-10-25T13:27:24.146Z,100977.34
2022-10-25T13:30:28.139Z,100969.22
2022-10-25T13:33:33.958Z,100978.91
2022-10-25T13:36:12.499Z,100994.47
2022-10-25T13:38:49.449Z,100984.97
2022-10-25T13:41:26.697Z,100994.09
2022-10-25T13:44:08.495Z,100990.00
2022-10-25T13:46:45.843Z,100991.69
2022-10-25T13:49:39.094Z,100987.03
2022-10-25T13:52:32.458Z,100988.63
2022-10-25T13:55:11.409Z,100995.13
2022-10-25T13:57:55.400Z,100988.63
2022-10-25T14:00:47.883Z,100995.28
2022-10-25T14:03:48.899Z,100992.91
2022-10-25T14:06:31.805Z,100997.25
2022-10-25T14:09:15.869Z,100995.59
2022-10-25T14:11:55.869Z,100994.50
2022-10-25T14:14:39.660Z,100994.09
2022-10-25T14:17:32.410Z,100988.19
2022-10-25T14:20:21.669Z,100999.22
2022-10-25T14:23:03.042Z,100988.84
2022-10-25T14:25:43.529Z,100998.88
2022-10-25T14:28:27.261Z,100999.84
2022-10-25T14:31:06.878Z,101000.16
2022-10-25T14:33:52.736Z,101007.50
2022-10-25T14:36:33.385Z,101013.16
2022-10-25T14:39:21.351Z,101018.50
2022-10-25T14:42:02.962Z,101018.09
2022-10-25T14:44:50.966Z,101024.16
2022-10-25T14:47:33.557Z,101020.50
2022-10-25T14:50:17.138Z,101024.75
2022-10-25T14:52:59.182Z,101019.56
2022-10-25T14:55:40.611Z,101033.84
2022-10-25T14:58:18.293Z,101023.13
2022-10-25T15:01:02.377Z,101021.41
2022-10-25T15:03:49.836Z,101032.41
2022-10-25T15:06:34.375Z,101021.97
2022-10-25T15:09:42.742Z,101016.94
2022-10-25T15:12:25.127Z,101034.69
2022-10-25T15:15:23.996Z,101031.91
2022-10-25T15:18:02.372Z,101035.13
2022-10-25T15:20:39.616Z,101044.03
2022-10-25T15:23:25.917Z,101040.38
2022-10-25T15:26:23.600Z,101040.38
2022-10-25T15:29:05.709Z,101044.75
2022-10-25T15:31:48.816Z,101048.00
2022-10-25T15:34:26.677Z,101056.16
2022-10-25T15:37:04.918Z,101056.75
2022-10-25T15:39:45.487Z,101049.56
2022-10-25T15:42:24.595Z,101059.53
2022-10-25T15:45:05.029Z,101064.34
2022-10-25T15:47:43.368Z,101062.22
2022-10-25T15:50:23.168Z,101066.84
2022-10-25T15:53:02.235Z,101054.56
2022-10-25T15:55:45.881Z,101061.19
2022-10-25T15:58:24.227Z,101056.38
2022-10-25T16:01:02.587Z,101052.44
2022-10-25T16:03:40.856Z,101067.66
2022-10-25T16:06:18.916Z,101067.91
2022-10-25T16:08:57.900Z,101064.81
2022-10-25T16:11:43.616Z,101074.09
2022-10-25T16:14:29.015Z,101064.22
2022-10-25T16:17:06.283Z,101071.81
2022-10-25T16:19:43.606Z,101076.72
2022-10-25T16:22:20.527Z,101080.22
2022-10-25T16:25:02.457Z,101069.63
2022-10-25T16:27:45.074Z,101070.31
2022-10-25T16:30:27.046Z,101085.63
2022-10-25T16:33:05.434Z,101074.50
2022-10-25T16:35:43.146Z,101069.72
2022-10-25T16:38:21.501Z,101077.28
2022-10-25T16:41:01.184Z,101080.34
2022-10-25T16:43:46.967Z,101068.38
2022-10-25T16:46:28.794Z,101072.09
2022-10-25T16:49:10.217Z,101077.97
2022-10-25T16:51:50.940Z,101081.84
2022-10-25T16:54:28.381Z,101075.22
2022-10-25T16:57:06.588Z,101079.97
2022-10-25T16:59:48.061Z,101080.94
2022-10-25T17:02:28.433Z,101075.28
2022-10-25T17:05:07.801Z,101081.72
2022-10-25T17:07:46.446Z,101078.34
2022-10-25T17:10:26.039Z,101081.00
2022-10-25T17:13:07.708Z,101080.53
2022-10-25T17:15:48.990Z,101082.25
2022-10-25T17:18:27.740Z,101095.72
2022-10-25T17:21:11.142Z,101088.69
2022-10-25T17:23:51.420Z,101095.13
2022-10-25T17:26:30.226Z,101103.16
2022-10-25T17:29:09.060Z,101102.44
2022-10-25T17:31:50.595Z,101108.59
2022-10-25T17:34:28.336Z,101109.69
2022-10-25T17:37:05.517Z,101111.41
2022-10-25T17:39:42.934Z,101108.03
2022-10-25T17:42:20.928Z,101113.38
2022-10-25T17:44:58.356Z,101112.66
2022-10-25T17:47:42.845Z,101116.13
2022-10-25T17:50:22.912Z,101109.50
2022-10-25T17:53:00.304Z,101118.94
2022-10-25T17:55:41.301Z,101114.72
2022-10-25T17:58:22.089Z,101125.06
2022-10-25T18:01:09.550Z,101127.59
2022-10-25T18:03:50.441Z,101130.16
2022-10-25T18:06:29.543Z,101143.59
2022-10-25T18:09:07.183Z,101143.59
2022-10-25T18:11:46.105Z,101142.75
2022-10-25T18:14:33.144Z,101157.34
2022-10-25T18:17:10.824Z,101157.94
2022-10-25T18:19:50.847Z,101149.22
2022-10-25T18:22:29.794Z,101148.09
2022-10-25T18:25:07.255Z,101151.75
2022-10-25T18:27:45.141Z,101157.09
2022-10-25T18:30:25.505Z,101158.91
2022-10-25T18:33:03.584Z,101157.09
2022-10-25T18:35:44.221Z,101160.22
2022-10-25T18:38:22.754Z,101161.44
2022-10-25T18:41:00.141Z,101163.84
2022-10-25T18:43:40.849Z,101158.75
2022-10-25T18:46:19.943Z,101161.44
2022-10-25T18:48:59.741Z,101169.44
2022-10-25T18:51:44.124Z,101172.84
2022-10-25T18:54:26.264Z,101167.53
2022-10-25T18:57:09.131Z,101172.84
2022-10-25T18:59:49.498Z,101172.84
2022-10-25T19:02:36.748Z,101176.25
2022-10-25T19:05:17.023Z,101179.28
2022-10-25T19:08:00.674Z,101178.31
2022-10-25T19:10:40.612Z,101186.19
2022-10-25T19:13:21.293Z,101180.13
2022-10-25T19:16:02.034Z,101183.78
2022-10-25T19:18:43.334Z,101181.25
2022-10-25T19:21:27.624Z,101181.59
2022-10-25T19:24:12.769Z,101182.34
2022-10-25T19:26:59.153Z,101187.41
2022-10-25T19:29:36.853Z,101189.59
2022-10-25T19:32:14.904Z,101187.91
2022-10-25T19:34:53.117Z,101186.22
